Time;durP1;ratioP1;P1;durP2;ratioP2;P2;SDS_P1;SDS_P2;PMS_P1;PMS_P2;Temp;Humidity;BMP_temperature;BMP_pressure;BME280_temperature;BME280_humidity;BME280_pressure;Samples;Min_cycle;Max_cycle;Signal;HPM_P1;HPM_P2
2021/12/17 00:05:01;;;;;;;;;;;8.50;99.90;;;;;;4976401;28;19921;-41
2021/12/17 00:07:28;;;;;;;;;;;8.50;99.90;;;;;;4999526;28;19921;-41
2021/12/17 00:09:55;;;;;;;;;;;8.50;99.90;;;;;;5007130;28;20432;-42
2021/12/17 00:12:22;;;;;;;;;;;8.50;99.90;;;;;;5011772;28;19921;-42
2021/12/17 00:14:51;;;;;;;;;;;8.40;99.90;;;;;;5032459;28;19935;-42
2021/12/17 00:17:22;;;;;;;;;;;8.50;99.90;;;;;;5008981;28;19961;-42
2021/12/17 00:20:05;;;;;;;;;;;8.50;99.90;;;;;;5020636;28;19921;-42
2021/12/17 00:50:25;;;;;;;;;;;8.50;99.90;;;;;;4967113;28;19926;-41
2021/12/17 00:52:51;;;;;;;;;;;8.40;99.90;;;;;;5013414;28;20004;-41
2021/12/17 00:55:18;;;;;;;;;;;8.40;99.90;;;;;;5000102;28;19964;-41
2021/12/17 00:57:46;;;;;;;;;;;8.40;99.90;;;;;;5005687;28;19964;-42
2021/12/17 01:00:13;;;;;;;;;;;8.40;99.90;;;;;;5002228;28;20364;-43
2021/12/17 01:02:41;;;;;;;;;;;8.40;99.90;;;;;;5016974;28;19925;-42
2021/12/17 01:05:10;;;;;;;;;;;8.50;99.90;;;;;;5009962;28;19972;-41
2021/12/17 01:07:37;;;;;;;;;;;8.40;99.90;;;;;;5017939;28;20000;-41
2021/12/17 01:10:05;;;;;;;;;;;8.40;99.90;;;;;;5009359;28;19972;-42
2021/12/17 01:12:32;;;;;;;;;;;8.40;99.90;;;;;;5035410;28;19927;-42
2021/12/17 01:14:59;;;;;;;;;;;8.40;99.90;;;;;;5023982;28;19925;-42
2021/12/17 01:17:27;;;;;;;;;;;8.40;99.90;;;;;;5023681;28;19960;-41
2021/12/17 01:22:51;;;;;;;;;;;8.50;99.90;;;;;;5034364;28;19925;-41
2021/12/17 01:25:32;;;;;;;;;;;8.40;99.90;;;;;;5035271;28;19925;-42
2021/12/17 01:36:23;;;;;;;;;;;8.40;99.90;;;;;;4963669;28;20399;-41
2021/12/17 01:42:05;;;;;;;;;;;8.40;99.90;;;;;;5032696;28;19971;-42
2021/12/17 01:44:31;;;;;;;;;;;8.40;99.90;;;;;;5016722;28;20344;-42
2021/12/17 01:46:58;;;;;;;;;;;8.40;99.90;;;;;;5027883;28;19921;-42
2021/12/17 01:55:40;;;;;;;;;;;8.40;99.90;;;;;;5013577;28;19964;-41
2021/12/17 02:00:34;;;;;;;;;;;8.40;99.90;;;;;;5000373;28;19925;-41
2021/12/17 02:03:02;;;;;;;;;;;8.40;99.90;;;;;;5026048;28;20048;-40
2021/12/17 02:05:28;;;;;;;;;;;8.40;99.90;;;;;;4998662;28;20016;-41
2021/12/17 02:07:58;;;;;;;;;;;8.40;99.90;;;;;;5015526;28;20020;-41
2021/12/17 02:11:06;;;;;;;;;;;8.40;99.90;;;;;;5022898;28;19921;-41
2021/12/17 02:30:08;;;;;;;;;;;8.40;99.90;;;;;;5016005;28;19945;-41
2021/12/17 02:32:37;;;;;;;;;;;8.40;99.90;;;;;;5032015;28;19928;-41
2021/12/17 02:35:22;;;;;;;;;;;8.40;99.90;;;;;;5007730;28;19920;-42
2021/12/17 02:37:51;;;;;;;;;;;8.40;99.90;;;;;;5035145;28;19921;-41
2021/12/17 02:42:20;;;;;;;;;;;8.40;99.90;;;;;;5033080;28;20377;-41
2021/12/17 02:45:54;;;;;;;;;;;8.40;99.90;;;;;;5032857;28;20363;-41
2021/12/17 02:48:21;;;;;;;;;;;8.40;99.90;;;;;;5034292;28;19925;-42
2021/12/17 02:50:49;;;;;;;;;;;8.40;99.90;;;;;;5012689;28;20373;-42
2021/12/17 02:53:18;;;;;;;;;;;8.40;99.90;;;;;;5011877;28;19921;-41
2021/12/17 02:55:46;;;;;;;;;;;8.40;99.90;;;;;;5006911;28;19968;-41
2021/12/17 02:58:13;;;;;;;;;;;8.40;99.90;;;;;;5023548;28;19921;-42
2021/12/17 03:00:40;;;;;;;;;;;8.40;99.90;;;;;;5027575;28;20067;-43
2021/12/17 03:03:07;;;;;;;;;;;8.40;99.90;;;;;;5014928;28;19921;-41
2021/12/17 03:05:35;;;;;;;;;;;8.40;99.90;;;;;;4997417;28;19921;-41
2021/12/17 03:08:02;;;;;;;;;;;8.40;99.90;;;;;;5016197;28;19921;-44
2021/12/17 03:10:30;;;;;;;;;;;8.40;99.90;;;;;;5016052;28;20046;-41
2021/12/17 03:13:00;;;;;;;;;;;8.40;99.90;;;;;;5018780;28;19928;-42
2021/12/17 03:15:33;;;;;;;;;;;8.40;99.90;;;;;;5017097;28;19920;-41
2021/12/17 03:18:35;;;;;;;;;;;8.40;99.90;;;;;;5028528;28;19921;-41
2021/12/17 03:23:43;;;;;;;;;;;8.40;99.90;;;;;;5016662;28;19921;-41
2021/12/17 03:26:12;;;;;;;;;;;8.40;99.90;;;;;;5021483;28;19928;-42
2021/12/17 03:28:39;;;;;;;;;;;8.40;99.90;;;;;;5020001;28;20021;-41
2021/12/17 03:31:06;;;;;;;;;;;8.40;99.90;;;;;;5017059;28;19989;-44
2021/12/17 03:33:33;;;;;;;;;;;8.40;99.90;;;;;;5014280;28;19921;-42
2021/12/17 03:36:00;;;;;;;;;;;8.40;99.90;;;;;;5032508;28;19920;-42
2021/12/17 03:38:27;;;;;;;;;;;8.40;99.90;;;;;;5029445;28;19925;-41
2021/12/17 03:41:05;;;;;;;;;;;8.40;99.90;;;;;;5020983;28;19921;-41
2021/12/17 03:43:33;;;;;;;;;;;8.40;99.90;;;;;;5020226;28;19932;-41
2021/12/17 03:46:00;;;;;;;;;;;8.40;99.90;;;;;;5014024;28;19921;-41
2021/12/17 03:48:29;;;;;;;;;;;8.30;99.90;;;;;;5024555;28;20000;-42
2021/12/17 03:50:56;;;;;;;;;;;8.40;99.90;;;;;;4996582;28;19921;-42
2021/12/17 03:53:22;;;;;;;;;;;8.40;99.90;;;;;;4996790;28;20326;-42
2021/12/17 03:55:50;;;;;;;;;;;8.40;99.90;;;;;;5023946;28;20373;-41
2021/12/17 03:58:18;;;;;;;;;;;8.40;99.90;;;;;;5033130;28;19931;-41
2021/12/17 04:00:46;;;;;;;;;;;8.40;99.90;;;;;;5015969;28;20296;-42
2021/12/17 04:03:13;;;;;;;;;;;8.30;99.90;;;;;;5026621;28;19929;-41
2021/12/17 04:05:41;;;;;;;;;;;8.40;99.90;;;;;;5018591;28;19921;-41
2021/12/17 04:08:08;;;;;;;;;;;8.40;99.90;;;;;;5011369;28;19921;-41
2021/12/17 04:10:41;;;;;;;;;;;8.30;99.90;;;;;;5032593;28;19944;-42
2021/12/17 04:13:25;;;;;;;;;;;8.30;99.90;;;;;;5032936;28;19921;-42
2021/12/17 04:15:57;;;;;;;;;;;8.30;99.90;;;;;;5032090;28;20021;-41
2021/12/17 04:18:23;;;;;;;;;;;8.30;99.90;;;;;;5015422;28;20369;-42
2021/12/17 04:20:50;;;;;;;;;;;8.40;99.90;;;;;;5018674;28;19928;-42
2021/12/17 04:23:17;;;;;;;;;;;8.40;99.90;;;;;;5004289;28;20340;-43
2021/12/17 04:25:44;;;;;;;;;;;8.40;99.90;;;;;;5031438;28;20479;-42
2021/12/17 04:28:10;;;;;;;;;;;8.40;99.90;;;;;;5000457;28;19921;-42
2021/12/17 04:30:38;;;;;;;;;;;8.40;99.90;;;;;;5013673;28;19971;-42
2021/12/17 04:33:07;;;;;;;;;;;8.30;99.90;;;;;;5025429;28;19968;-42
2021/12/17 04:35:34;;;;;;;;;;;8.30;99.90;;;;;;5026709;28;19970;-42
2021/12/17 04:38:01;;;;;;;;;;;8.30;99.90;;;;;;5010008;28;19927;-41
2021/12/17 04:40:28;;;;;;;;;;;8.30;99.90;;;;;;5015433;28;19925;-41
2021/12/17 04:43:02;;;;;;;;;;;8.40;99.90;;;;;;5012847;28;20395;-42
2021/12/17 04:45:28;;;;;;;;;;;8.30;99.90;;;;;;5007875;28;19925;-41
2021/12/17 04:58:54;;;;;;;;;;;8.40;99.90;;;;;;5013655;28;20360;-42
2021/12/17 05:01:20;;;;;;;;;;;8.30;99.90;;;;;;5015125;28;19921;-41
2021/12/17 05:03:47;;;;;;;;;;;8.40;99.90;;;;;;5015210;28;19976;-42
2021/12/17 05:06:18;;;;;;;;;;;8.30;99.90;;;;;;5013042;28;20389;-41
2021/12/17 05:08:45;;;;;;;;;;;8.30;99.90;;;;;;5015966;28;19971;-42
2021/12/17 05:11:24;;;;;;;;;;;8.30;99.90;;;;;;5013377;28;20380;-42
2021/12/17 05:19:31;;;;;;;;;;;8.30;99.90;;;;;;5013468;28;20270;-41
2021/12/17 05:22:05;;;;;;;;;;;8.40;99.90;;;;;;5017186;28;20451;-42
2021/12/17 05:24:31;;;;;;;;;;;8.40;99.90;;;;;;5010695;28;19933;-44
2021/12/17 05:26:58;;;;;;;;;;;8.30;99.90;;;;;;5023356;28;19963;-42
2021/12/17 05:29:25;;;;;;;;;;;8.40;99.90;;;;;;5011413;28;20015;-43
2021/12/17 05:31:52;;;;;;;;;;;8.30;99.90;;;;;;5029689;28;19921;-42
2021/12/17 05:34:18;;;;;;;;;;;8.30;99.90;;;;;;5013943;28;19921;-42
2021/12/17 05:36:48;;;;;;;;;;;8.40;99.90;;;;;;5026486;28;19921;-42
2021/12/17 05:39:19;;;;;;;;;;;8.30;99.90;;;;;;5013359;28;19936;-42
2021/12/17 05:41:46;;;;;;;;;;;8.30;99.90;;;;;;5001682;28;19921;-42
2021/12/17 05:44:14;;;;;;;;;;;8.40;99.90;;;;;;5006563;28;19925;-42
2021/12/17 05:46:49;;;;;;;;;;;8.30;99.90;;;;;;5031609;28;19968;-42
2021/12/17 05:49:17;;;;;;;;;;;8.30;99.90;;;;;;5013335;28;19921;-41
2021/12/17 05:51:43;;;;;;;;;;;8.40;99.90;;;;;;5034879;28;19921;-42
2021/12/17 05:54:10;;;;;;;;;;;8.30;99.90;;;;;;5017169;28;19921;-42
2021/12/17 05:56:38;;;;;;;;;;;8.30;99.90;;;;;;5035055;28;19921;-42
2021/12/17 05:59:05;;;;;;;;;;;8.30;99.90;;;;;;5011983;28;19964;-42
2021/12/17 06:01:32;;;;;;;;;;;8.30;99.90;;;;;;5007716;28;19964;-43
2021/12/17 06:03:59;;;;;;;;;;;8.30;99.90;;;;;;5016783;28;19925;-42
2021/12/17 06:06:27;;;;;;;;;;;8.30;99.90;;;;;;5005015;28;20428;-41
2021/12/17 06:08:53;;;;;;;;;;;8.30;99.90;;;;;;5003198;28;20453;-42
2021/12/17 06:11:20;;;;;;;;;;;8.30;99.90;;;;;;5031577;28;19927;-42
2021/12/17 06:13:48;;;;;;;;;;;8.30;99.90;;;;;;5011154;28;19924;-42
2021/12/17 06:16:15;;;;;;;;;;;8.30;99.90;;;;;;5034454;28;19927;-41
2021/12/17 06:18:42;;;;;;;;;;;8.30;99.90;;;;;;5034443;28;20380;-42
2021/12/17 06:21:10;;;;;;;;;;;8.30;99.90;;;;;;5026672;28;19928;-43
2021/12/17 06:23:37;;;;;;;;;;;8.30;99.90;;;;;;5002309;28;19921;-42
2021/12/17 06:26:04;;;;;;;;;;;8.30;99.90;;;;;;5023508;28;19964;-42
2021/12/17 06:28:31;;;;;;;;;;;8.30;99.90;;;;;;5022285;28;20374;-42
2021/12/17 06:30:59;;;;;;;;;;;8.30;99.90;;;;;;5013978;28;20049;-41
2021/12/17 06:33:26;;;;;;;;;;;8.30;99.90;;;;;;5016701;28;19971;-42
2021/12/17 06:35:52;;;;;;;;;;;8.30;99.90;;;;;;5014965;28;19925;-41
2021/12/17 06:38:20;;;;;;;;;;;8.30;99.90;;;;;;5033180;28;19921;-42
2021/12/17 06:40:48;;;;;;;;;;;8.30;99.90;;;;;;5012103;28;19921;-41
2021/12/17 06:43:15;;;;;;;;;;;8.20;99.90;;;;;;5005094;28;19921;-41
2021/12/17 06:45:52;;;;;;;;;;;8.30;99.90;;;;;;5029534;28;19929;-42
2021/12/17 06:48:25;;;;;;;;;;;8.20;99.90;;;;;;5021341;28;19931;-42
2021/12/17 07:10:30;;;;;;;;;;;8.20;99.90;;;;;;5085519;27;20364;-44
2021/12/17 07:21:29;;;;;;;;;;;8.20;99.90;;;;;;5069020;28;20509;-42
2021/12/17 07:32:20;;;;;;;;;;;8.20;99.90;;;;;;5089971;28;19924;-42
2021/12/17 07:35:01;;;;;;;;;;;8.20;99.90;;;;;;5079957;28;20373;-42
2021/12/17 07:40:12;;;;;;;;;;;8.20;99.90;;;;;;5094984;28;19924;-42
2021/12/17 07:42:40;;;;;;;;;;;8.20;99.90;;;;;;5098569;28;19924;-42
2021/12/17 07:45:07;;;;;;;;;;;8.20;99.90;;;;;;5089751;28;19931;-43
2021/12/17 07:47:34;;;;;;;;;;;8.20;99.90;;;;;;5078717;28;19995;-43
2021/12/17 07:50:01;;;;;;;;;;;8.10;99.90;;;;;;5083798;28;19967;-42
2021/12/17 07:52:28;;;;;;;;;;;8.20;99.90;;;;;;5084793;28;19935;-43
2021/12/17 07:54:54;;;;;;;;;;;8.20;99.90;;;;;;5083249;28;20509;-42
2021/12/17 07:57:21;;;;;;;;;;;8.20;99.90;;;;;;5104536;28;20380;-43
2021/12/17 07:59:51;;;;;;;;;;;8.10;99.90;;;;;;5086537;28;19928;-44
2021/12/17 08:02:18;;;;;;;;;;;8.20;99.90;;;;;;5084404;28;19946;-44
2021/12/17 08:04:44;;;;;;;;;;;8.20;99.90;;;;;;5086661;28;19924;-43
2021/12/17 08:07:11;;;;;;;;;;;8.20;99.90;;;;;;5086908;28;20378;-42
2021/12/17 08:09:39;;;;;;;;;;;8.20;99.90;;;;;;5087605;28;19971;-42
2021/12/17 08:12:08;;;;;;;;;;;8.20;99.90;;;;;;5086650;28;19929;-43
2021/12/17 08:14:35;;;;;;;;;;;8.20;99.90;;;;;;5087367;28;19925;-41
2021/12/17 08:17:14;;;;;;;;;;;8.20;99.90;;;;;;5087927;28;19924;-41
2021/12/17 08:25:12;;;;;;;;;;;8.20;99.90;;;;;;5065229;28;19924;-44
2021/12/17 08:27:50;;;;;;;;;;;8.20;99.90;;;;;;5071198;28;20391;-42
2021/12/17 08:30:26;;;;;;;;;;;8.20;99.90;;;;;;5036604;28;19939;-44
2021/12/17 08:32:54;;;;;;;;;;;8.30;99.90;;;;;;5100514;28;19928;-43
2021/12/17 08:35:21;;;;;;;;;;;8.30;99.90;;;;;;5070402;28;19968;-43
2021/12/17 08:37:48;;;;;;;;;;;8.30;99.90;;;;;;5072827;28;19924;-43
2021/12/17 08:40:15;;;;;;;;;;;8.30;99.90;;;;;;5073255;28;19950;-42
2021/12/17 08:42:42;;;;;;;;;;;8.20;99.90;;;;;;5073108;28;19946;-43
2021/12/17 08:45:09;;;;;;;;;;;8.30;99.90;;;;;;5072037;28;19964;-42
2021/12/17 08:47:37;;;;;;;;;;;8.30;99.90;;;;;;5071210;28;20391;-43
2021/12/17 08:50:08;;;;;;;;;;;8.30;99.90;;;;;;5071050;28;20414;-42
2021/12/17 08:52:35;;;;;;;;;;;8.30;99.90;;;;;;5070405;28;19928;-42
2021/12/17 08:55:02;;;;;;;;;;;8.30;99.90;;;;;;5067996;28;20335;-42
2021/12/17 08:57:28;;;;;;;;;;;8.30;99.90;;;;;;5055713;28;20304;-42
2021/12/17 08:59:57;;;;;;;;;;;8.30;99.90;;;;;;5071718;28;19928;-42
2021/12/17 09:02:24;;;;;;;;;;;8.30;99.90;;;;;;5067444;28;20353;-43
2021/12/17 09:04:51;;;;;;;;;;;8.30;99.90;;;;;;5073385;28;19924;-43
2021/12/17 09:07:19;;;;;;;;;;;8.40;99.90;;;;;;5072291;28;20353;-43
2021/12/17 09:09:47;;;;;;;;;;;8.30;99.90;;;;;;5072934;28;19928;-42
2021/12/17 09:12:14;;;;;;;;;;;8.40;99.90;;;;;;5072263;28;20279;-43
2021/12/17 09:14:41;;;;;;;;;;;8.40;99.90;;;;;;5068602;28;19987;-43
2021/12/17 09:17:08;;;;;;;;;;;8.40;99.90;;;;;;5072285;28;20340;-43
2021/12/17 09:19:36;;;;;;;;;;;8.40;99.90;;;;;;5071890;28;19936;-42
2021/12/17 09:22:03;;;;;;;;;;;8.40;99.90;;;;;;5072482;28;19982;-42
2021/12/17 09:24:31;;;;;;;;;;;8.50;99.90;;;;;;5071768;28;19933;-43
2021/12/17 09:26:57;;;;;;;;;;;8.50;99.90;;;;;;5071926;28;20015;-43
2021/12/17 09:29:24;;;;;;;;;;;8.50;99.90;;;;;;5072815;28;19931;-43
2021/12/17 09:31:51;;;;;;;;;;;8.50;99.90;;;;;;5070852;28;19975;-42
2021/12/17 09:34:18;;;;;;;;;;;8.50;99.90;;;;;;5072177;28;19924;-44
2021/12/17 09:36:45;;;;;;;;;;;8.50;99.90;;;;;;5072072;28;19989;-44
2021/12/17 09:39:12;;;;;;;;;;;8.60;99.90;;;;;;5071740;28;19924;-42
2021/12/17 09:41:40;;;;;;;;;;;8.60;99.90;;;;;;5072831;28;19982;-42
2021/12/17 09:44:06;;;;;;;;;;;8.60;99.90;;;;;;5073093;28;19924;-43
2021/12/17 09:46:33;;;;;;;;;;;8.60;99.90;;;;;;5071878;28;19931;-43
2021/12/17 09:49:00;;;;;;;;;;;8.60;99.90;;;;;;5076024;28;20412;-43
2021/12/17 09:51:27;;;;;;;;;;;8.60;99.90;;;;;;5072622;28;20451;-43
2021/12/17 09:53:54;;;;;;;;;;;8.60;99.90;;;;;;5068815;28;19985;-44
2021/12/17 09:56:20;;;;;;;;;;;8.70;99.90;;;;;;5068900;28;20457;-43
2021/12/17 09:58:49;;;;;;;;;;;8.70;99.90;;;;;;5072236;28;19929;-45
2021/12/17 10:01:16;;;;;;;;;;;8.70;99.90;;;;;;5072345;28;19925;-43
2021/12/17 10:03:43;;;;;;;;;;;8.70;99.90;;;;;;5070827;28;20336;-45
2021/12/17 10:06:20;;;;;;;;;;;8.80;99.90;;;;;;5069122;28;20372;-43
2021/12/17 10:08:47;;;;;;;;;;;8.80;99.90;;;;;;5071469;28;19929;-45
2021/12/17 10:11:14;;;;;;;;;;;8.80;99.90;;;;;;5070825;28;20370;-42
2021/12/17 10:13:41;;;;;;;;;;;8.80;99.90;;;;;;5071265;28;19994;-43
2021/12/17 10:16:10;;;;;;;;;;;8.80;99.90;;;;;;5070235;28;19985;-44
2021/12/17 10:18:37;;;;;;;;;;;8.90;99.90;;;;;;5070070;28;20422;-43
2021/12/17 10:21:04;;;;;;;;;;;8.90;99.90;;;;;;5071564;28;20003;-43
2021/12/17 10:23:31;;;;;;;;;;;8.90;99.90;;;;;;5070976;28;19935;-43
2021/12/17 10:25:58;;;;;;;;;;;8.90;99.90;;;;;;5071748;28;20356;-46
2021/12/17 10:28:25;;;;;;;;;;;9.00;99.90;;;;;;5071851;28;20447;-43
2021/12/17 10:30:52;;;;;;;;;;;9.00;99.90;;;;;;5070581;28;20352;-43
2021/12/17 10:33:21;;;;;;;;;;;9.00;99.90;;;;;;5068858;28;19936;-43
2021/12/17 10:35:49;;;;;;;;;;;9.00;99.90;;;;;;5070323;28;20285;-43
2021/12/17 10:38:19;;;;;;;;;;;9.00;99.90;;;;;;5068979;28;19933;-43
2021/12/17 10:40:53;;;;;;;;;;;9.00;99.90;;;;;;5068750;28;20373;-43
2021/12/17 10:43:24;;;;;;;;;;;9.00;99.90;;;;;;5069640;28;19928;-43
2021/12/17 10:46:00;;;;;;;;;;;9.10;99.90;;;;;;5071420;28;19924;-44
2021/12/17 10:48:34;;;;;;;;;;;9.10;99.90;;;;;;5065357;28;19925;-43
2021/12/17 10:51:03;;;;;;;;;;;9.10;99.90;;;;;;5061693;28;19977;-44
2021/12/17 10:53:30;;;;;;;;;;;9.10;99.90;;;;;;5069170;28;20007;-44
2021/12/17 10:55:56;;;;;;;;;;;9.20;99.90;;;;;;5103296;28;19931;-43
2021/12/17 10:58:23;;;;;;;;;;;9.20;99.90;;;;;;5071112;28;19925;-42
2021/12/17 11:00:51;;;;;;;;;;;9.20;99.90;;;;;;5068164;28;19928;-42
2021/12/17 11:03:18;;;;;;;;;;;9.20;99.90;;;;;;5069041;28;19931;-43
2021/12/17 11:05:46;;;;;;;;;;;9.20;99.90;;;;;;5070614;28;19924;-44
2021/12/17 11:08:19;;;;;;;;;;;9.30;99.90;;;;;;5071460;28;19925;-47
2021/12/17 11:10:55;;;;;;;;;;;9.30;99.90;;;;;;5070536;28;19928;-44
2021/12/17 11:13:22;;;;;;;;;;;9.30;99.90;;;;;;5070779;28;19967;-43
2021/12/17 11:15:50;;;;;;;;;;;9.40;99.90;;;;;;5067440;28;20023;-43
2021/12/17 11:18:20;;;;;;;;;;;9.40;99.90;;;;;;5070913;28;20400;-44
2021/12/17 11:20:48;;;;;;;;;;;9.40;99.90;;;;;;5073945;28;19931;-43
2021/12/17 11:23:16;;;;;;;;;;;9.40;99.90;;;;;;5076985;28;20300;-44
2021/12/17 11:25:44;;;;;;;;;;;9.40;99.90;;;;;;5068168;28;19925;-45
2021/12/17 11:28:11;;;;;;;;;;;9.40;99.90;;;;;;5063512;28;20394;-45
2021/12/17 11:30:38;;;;;;;;;;;9.50;99.90;;;;;;5056208;28;19925;-44
2021/12/17 11:33:05;;;;;;;;;;;9.50;99.90;;;;;;5066858;28;19925;-43
2021/12/17 11:35:32;;;;;;;;;;;9.50;99.90;;;;;;5050454;28;19974;-44
2021/12/17 11:38:01;;;;;;;;;;;9.60;99.90;;;;;;5050683;28;19925;-44
2021/12/17 11:40:28;;;;;;;;;;;9.60;99.90;;;;;;5051632;28;19979;-45
2021/12/17 11:43:16;;;;;;;;;;;9.60;99.90;;;;;;5052672;28;20372;-44
2021/12/17 11:45:44;;;;;;;;;;;9.60;99.90;;;;;;5066455;28;19979;-44
2021/12/17 11:48:11;;;;;;;;;;;9.60;99.90;;;;;;5077306;28;19982;-44
2021/12/17 11:50:38;;;;;;;;;;;9.60;99.90;;;;;;5090978;28;20384;-43
2021/12/17 11:53:17;;;;;;;;;;;9.60;99.90;;;;;;5078996;28;19978;-44
2021/12/17 11:55:44;;;;;;;;;;;9.60;99.90;;;;;;5073672;28;19924;-46
2021/12/17 11:58:15;;;;;;;;;;;9.70;99.90;;;;;;5074699;28;19979;-44
2021/12/17 12:00:51;;;;;;;;;;;9.70;99.90;;;;;;5075151;28;19932;-45
2021/12/17 12:03:19;;;;;;;;;;;9.70;99.90;;;;;;5075744;28;19924;-44
2021/12/17 12:05:49;;;;;;;;;;;9.70;99.90;;;;;;5074738;28;20024;-43
2021/12/17 12:08:25;;;;;;;;;;;9.70;99.90;;;;;;5074847;28;19999;-45
2021/12/17 12:11:08;;;;;;;;;;;9.70;99.90;;;;;;5074497;28;19931;-43
2021/12/17 12:13:36;;;;;;;;;;;9.70;99.90;;;;;;5074581;28;19928;-43
2021/12/17 12:16:03;;;;;;;;;;;9.70;99.90;;;;;;5074588;28;20306;-43
2021/12/17 12:18:40;;;;;;;;;;;9.70;99.90;;;;;;5074486;28;20023;-43
2021/12/17 12:21:07;;;;;;;;;;;9.80;99.90;;;;;;5074382;28;19947;-44
2021/12/17 12:23:39;;;;;;;;;;;9.70;99.90;;;;;;5075515;28;19931;-42
2021/12/17 12:26:19;;;;;;;;;;;9.80;99.90;;;;;;5075382;28;20311;-45
2021/12/17 12:28:53;;;;;;;;;;;9.70;99.90;;;;;;5073765;28;19978;-42
2021/12/17 12:31:39;;;;;;;;;;;9.70;99.90;;;;;;5074905;28;19960;-43
2021/12/17 12:34:06;;;;;;;;;;;9.70;99.90;;;;;;5075248;28;19929;-44
2021/12/17 12:36:46;;;;;;;;;;;9.70;99.90;;;;;;5075418;28;19932;-44
2021/12/17 12:39:15;;;;;;;;;;;9.80;99.90;;;;;;5075154;28;19924;-47
2021/12/17 12:41:43;;;;;;;;;;;9.80;99.90;;;;;;5075118;28;19929;-43
2021/12/17 12:44:10;;;;;;;;;;;9.80;99.90;;;;;;5074082;28;19931;-45
2021/12/17 12:46:49;;;;;;;;;;;9.80;99.90;;;;;;5074325;28;19930;-42
2021/12/17 12:49:35;;;;;;;;;;;9.80;99.90;;;;;;5074005;28;19924;-43
2021/12/17 12:52:14;;;;;;;;;;;9.80;99.90;;;;;;5074024;28;20015;-43
2021/12/17 12:54:42;;;;;;;;;;;9.80;99.90;;;;;;5076657;28;19971;-43
2021/12/17 12:57:09;;;;;;;;;;;9.90;99.90;;;;;;5078427;28;19971;-43
2021/12/17 12:59:41;;;;;;;;;;;9.90;99.90;;;;;;5059692;28;19931;-45
2021/12/17 13:02:08;;;;;;;;;;;9.80;99.90;;;;;;5064444;28;19931;-44
2021/12/17 13:04:35;;;;;;;;;;;9.80;99.90;;;;;;5069998;28;19964;-43
2021/12/17 13:07:01;;;;;;;;;;;9.80;99.90;;;;;;5065539;28;19932;-44
2021/12/17 13:09:28;;;;;;;;;;;9.80;99.90;;;;;;5071068;28;19925;-42
2021/12/17 13:11:59;;;;;;;;;;;9.80;99.90;;;;;;5055299;28;20163;-44
2021/12/17 13:14:27;;;;;;;;;;;9.80;99.90;;;;;;5071064;28;19925;-42
2021/12/17 13:17:17;;;;;;;;;;;9.80;99.90;;;;;;5073170;28;20384;-43
2021/12/17 13:22:52;;;;;;;;;;;9.80;99.90;;;;;;5053123;28;19925;-42
2021/12/17 13:25:26;;;;;;;;;;;9.70;99.90;;;;;;5053404;28;19925;-44
2021/12/17 13:27:54;;;;;;;;;;;9.70;99.90;;;;;;5054351;28;19924;-42
2021/12/17 13:30:24;;;;;;;;;;;9.70;99.90;;;;;;5060005;28;19960;-43
2021/12/17 13:32:51;;;;;;;;;;;9.70;99.90;;;;;;5069281;28;19986;-42
2021/12/17 13:35:18;;;;;;;;;;;9.70;99.90;;;;;;5073416;28;20384;-42
2021/12/17 13:37:52;;;;;;;;;;;9.70;99.90;;;;;;5073169;28;19931;-43
2021/12/17 13:40:21;;;;;;;;;;;9.60;99.90;;;;;;5072776;28;20381;-42
2021/12/17 13:42:48;;;;;;;;;;;9.60;99.90;;;;;;5073974;28;20296;-44
2021/12/17 13:45:16;;;;;;;;;;;9.60;99.90;;;;;;5074000;28;20441;-43
2021/12/17 13:47:45;;;;;;;;;;;9.60;99.90;;;;;;5073773;28;19947;-43
2021/12/17 13:50:13;;;;;;;;;;;9.60;99.90;;;;;;5072576;28;20023;-44
2021/12/17 13:52:45;;;;;;;;;;;9.60;99.90;;;;;;5072811;28;19938;-46
2021/12/17 13:55:12;;;;;;;;;;;9.60;99.90;;;;;;5072622;28;20198;-44
2021/12/17 13:57:40;;;;;;;;;;;9.60;99.90;;;;;;5073562;28;19951;-45
2021/12/17 14:00:10;;;;;;;;;;;9.60;99.90;;;;;;5072936;28;20019;-44
2021/12/17 14:02:39;;;;;;;;;;;9.60;99.90;;;;;;5073379;28;19964;-44
2021/12/17 14:05:07;;;;;;;;;;;9.60;99.90;;;;;;5073416;28;19935;-44
2021/12/17 14:07:34;;;;;;;;;;;9.50;99.90;;;;;;5073317;28;19924;-44
2021/12/17 14:10:01;;;;;;;;;;;9.50;99.90;;;;;;5071924;28;19925;-43
2021/12/17 14:12:31;;;;;;;;;;;9.50;99.90;;;;;;5072447;28;20033;-42
2021/12/17 14:14:58;;;;;;;;;;;9.50;99.90;;;;;;5073650;28;19967;-47
2021/12/17 14:17:25;;;;;;;;;;;9.50;99.90;;;;;;5073017;28;19986;-44
2021/12/17 14:19:53;;;;;;;;;;;9.50;99.90;;;;;;5072891;28;20405;-44
2021/12/17 14:22:21;;;;;;;;;;;9.50;99.90;;;;;;5073149;28;20279;-45
2021/12/17 14:24:47;;;;;;;;;;;9.40;99.90;;;;;;5072927;28;20061;-43
2021/12/17 14:27:14;;;;;;;;;;;9.40;99.90;;;;;;5073238;28;19924;-44
2021/12/17 14:29:41;;;;;;;;;;;9.40;99.90;;;;;;5073066;28;19928;-42
2021/12/17 14:32:08;;;;;;;;;;;9.40;99.90;;;;;;5071774;28;20392;-46
2021/12/17 14:34:40;;;;;;;;;;;9.40;99.90;;;;;;5052086;28;19971;-45
2021/12/17 14:37:08;;;;;;;;;;;9.40;99.90;;;;;;5064629;28;19970;-44
2021/12/17 14:39:37;;;;;;;;;;;9.40;99.90;;;;;;5072394;28;19973;-49
2021/12/17 14:42:06;;;;;;;;;;;9.40;99.90;;;;;;5076889;28;19924;-42
2021/12/17 14:44:38;;;;;;;;;;;9.40;99.90;;;;;;5053981;28;20315;-42
2021/12/17 14:47:14;;;;;;;;;;;9.40;99.90;;;;;;5065203;28;20034;-42
2021/12/17 15:00:51;;;;;;;;;;;9.30;99.90;;;;;;5071540;28;20422;-45
2021/12/17 15:03:26;;;;;;;;;;;9.30;99.90;;;;;;5063763;28;19924;-44
2021/12/17 15:05:53;;;;;;;;;;;9.30;99.90;;;;;;5061781;28;19928;-43
2021/12/17 15:08:21;;;;;;;;;;;9.30;99.90;;;;;;5071013;28;19931;-42
2021/12/17 15:10:48;;;;;;;;;;;9.30;99.90;;;;;;5103938;28;19929;-42
2021/12/17 15:13:15;;;;;;;;;;;9.30;99.90;;;;;;5070997;28;19986;-45
2021/12/17 15:15:42;;;;;;;;;;;9.30;99.90;;;;;;5070800;28;19991;-42
2021/12/17 15:18:13;;;;;;;;;;;9.30;99.90;;;;;;5072384;28;20400;-45
2021/12/17 15:20:40;;;;;;;;;;;9.30;99.90;;;;;;5066629;28;19928;-42
2021/12/17 15:23:08;;;;;;;;;;;9.30;99.90;;;;;;5067225;28;20015;-41
2021/12/17 15:25:39;;;;;;;;;;;9.30;99.90;;;;;;5067298;28;19925;-42
2021/12/17 15:28:05;;;;;;;;;;;9.30;99.90;;;;;;5052425;28;19944;-43
2021/12/17 15:30:33;;;;;;;;;;;9.20;99.90;;;;;;5064342;28;20410;-42
2021/12/17 15:33:00;;;;;;;;;;;9.20;99.90;;;;;;5066309;28;19925;-44
2021/12/17 15:35:27;;;;;;;;;;;9.20;99.90;;;;;;5070677;28;20007;-43
2021/12/17 15:37:54;;;;;;;;;;;9.20;99.90;;;;;;5071307;28;19932;-43
2021/12/17 15:40:21;;;;;;;;;;;9.20;99.90;;;;;;5067191;28;19933;-43
2021/12/17 15:42:53;;;;;;;;;;;9.20;99.90;;;;;;5074759;28;19979;-42
2021/12/17 15:45:20;;;;;;;;;;;9.20;99.90;;;;;;5076073;28;19932;-44
2021/12/17 15:47:46;;;;;;;;;;;9.20;99.90;;;;;;5076154;28;20343;-43
2021/12/17 15:50:14;;;;;;;;;;;9.20;99.90;;;;;;5074513;28;19963;-42
2021/12/17 15:52:44;;;;;;;;;;;9.20;99.90;;;;;;5075598;28;19924;-42
2021/12/17 15:55:11;;;;;;;;;;;9.20;99.90;;;;;;5075325;28;19929;-43
2021/12/17 15:57:38;;;;;;;;;;;9.20;99.90;;;;;;5074766;28;20019;-44
2021/12/17 16:00:07;;;;;;;;;;;9.20;99.90;;;;;;5075054;28;19925;-43
2021/12/17 16:02:34;;;;;;;;;;;9.20;99.90;;;;;;5075599;28;19928;-44
2021/12/17 16:05:02;;;;;;;;;;;9.20;99.90;;;;;;5075536;28;20372;-43
2021/12/17 16:07:28;;;;;;;;;;;9.20;99.90;;;;;;5074927;28;20406;-43
2021/12/17 16:21:01;;;;;;;;;;;9.20;99.90;;;;;;5055070;28;19971;-42
2021/12/17 16:23:29;;;;;;;;;;;9.20;99.90;;;;;;5063828;28;19925;-43
2021/12/17 16:25:55;;;;;;;;;;;9.20;99.90;;;;;;5074639;28;19928;-44
2021/12/17 16:28:22;;;;;;;;;;;9.20;99.90;;;;;;5075159;28;20007;-42
2021/12/17 16:30:50;;;;;;;;;;;9.20;99.90;;;;;;5073649;28;19982;-43
2021/12/17 16:33:17;;;;;;;;;;;9.20;99.90;;;;;;5062055;28;19925;-42
2021/12/17 16:35:44;;;;;;;;;;;9.20;99.90;;;;;;5074015;28;20392;-43
2021/12/17 16:38:10;;;;;;;;;;;9.20;99.90;;;;;;5074856;28;19924;-42
2021/12/17 16:40:38;;;;;;;;;;;9.20;99.90;;;;;;5071630;28;19928;-42
2021/12/17 16:43:05;;;;;;;;;;;9.20;99.90;;;;;;5073963;28;20202;-42
2021/12/17 16:45:34;;;;;;;;;;;9.20;99.90;;;;;;5062271;28;19947;-42
2021/12/17 16:48:06;;;;;;;;;;;9.20;99.90;;;;;;5073159;28;19924;-42
2021/12/17 16:50:33;;;;;;;;;;;9.20;99.90;;;;;;5071178;28;20385;-42
2021/12/17 16:52:59;;;;;;;;;;;9.20;99.90;;;;;;5074773;28;19974;-42
2021/12/17 16:55:28;;;;;;;;;;;9.20;99.90;;;;;;5073795;28;19975;-42
2021/12/17 16:57:55;;;;;;;;;;;9.20;99.90;;;;;;5107569;28;19964;-42
2021/12/17 17:00:23;;;;;;;;;;;9.20;99.90;;;;;;5063653;28;19925;-42
2021/12/17 17:02:49;;;;;;;;;;;9.20;99.90;;;;;;5067937;28;19973;-42
2021/12/17 17:05:17;;;;;;;;;;;9.20;99.90;;;;;;5074689;28;20380;-41
2021/12/17 17:07:44;;;;;;;;;;;9.20;99.90;;;;;;5074600;28;20359;-43
2021/12/17 17:10:13;;;;;;;;;;;9.20;99.90;;;;;;5071708;28;19964;-42
2021/12/17 17:12:43;;;;;;;;;;;9.20;99.90;;;;;;5068280;28;19925;-43
2021/12/17 17:15:10;;;;;;;;;;;9.20;99.90;;;;;;5065250;28;20027;-42
2021/12/17 17:17:37;;;;;;;;;;;9.20;99.90;;;;;;5058642;28;19924;-44
2021/12/17 17:20:04;;;;;;;;;;;9.20;99.90;;;;;;5071241;28;19971;-47
2021/12/17 17:22:32;;;;;;;;;;;9.10;99.90;;;;;;5069184;28;20452;-44
2021/12/17 17:24:59;;;;;;;;;;;9.10;99.90;;;;;;5062087;28;20392;-44